Time,TemperatureF,DewpointF,PressureIn,WindDirection,WindDirectionDegrees,WindSpeedMPH,WindSpeedGustMPH,Humidity,HourlyPrecipIn,Conditions,Clouds,dailyrainin,SoftwareType,DateUTC
2013-07-18 00:01:00,70.3,69.4,29.59,NW,315,0.0,0.0,97,0.00,RA,SCT,0.00,WeatherDisplay:10.37,2013-07-18 04:01:00,
2013-07-18 00:06:00,70.3,69.4,29.60,NW,315,0.0,0.0,97,0.00,RA,SCT,0.00,WeatherDisplay:10.37,2013-07-18 04:06:00,
2013-07-18 00:11:00,70.3,69.4,29.59,NW,315,1.2,0.0,97,0.00,CLR,SCT,0.00,WeatherDisplay:10.37,2013-07-18 04:11:00,
2013-07-18 00:16:00,70.3,69.4,29.60,SE,135,0.0,0.0,97,0.00,CLR,SCT,0.00,WeatherDisplay:10.37,2013-07-18 04:16:00,
2013-07-18 00:21:00,70.2,69.3,29.59,SE,135,0.0,0.0,97,0.00,CLR,SCT,0.00,WeatherDisplay:10.37,2013-07-18 04:21:00,
2013-07-18 00:26:00,70.2,69.3,29.59,SW,225,1.2,0.0,97,0.00,CLR,SCT,0.00,WeatherDisplay:10.37,2013-07-18 04:26:00,
2013-07-18 00:31:00,70.2,69.3,29.60,SW,225,0.0,0.0,97,0.00,CLR,SCT,0.00,WeatherDisplay:10.37,2013-07-18 04:31:00,
2013-07-18 00:36:00,70.2,69.3,29.59,North,0,0.0,0.0,97,0.00,CLR,SCT,0.00,WeatherDisplay:10.37,2013-07-18 04:36:00,
2013-07-18 00:41:00,70.2,69.3,29.59,North,0,1.2,0.0,97,0.00,CLR,SCT,0.00,WeatherDisplay:10.37,2013-07-18 04:41:00,
2013-07-18 00:46:00,70.0,69.1,29.59,SW,225,1.2,0.0,97,0.00,CLR,SCT,0.00,WeatherDisplay:10.37,2013-07-18 04:46:00,
2013-07-18 00:51:00,70.0,69.1,29.59,SW,225,0.0,0.0,97,0.00,CLR,SCT,0.00,WeatherDisplay:10.37,2013-07-18 04:51:00,
2013-07-18 00:56:00,70.0,69.4,29.58,SW,225,0.0,0.0,98,0.00,CLR,SCT,0.00,WeatherDisplay:10.37,2013-07-18 04:56:00,
2013-07-18 01:01:00,70.0,69.4,29.59,SW,225,0.0,0.0,98,0.00,CLR,SCT,0.00,WeatherDisplay:10.37,2013-07-18 05:01:00,
2013-07-18 01:06:00,69.8,69.2,29.59,SW,225,1.2,0.0,98,0.00,CLR,SCT,0.00,WeatherDisplay:10.37,2013-07-18 05:06:00,
2013-07-18 01:11:00,69.8,69.2,29.59,SE,135,0.0,0.0,98,0.00,CLR,SCT,0.00,WeatherDisplay:10.37,2013-07-18 05:11:00,
2013-07-18 01:16:00,69.6,69.3,29.59,South,180,1.2,0.0,99,0.00,CLR,SCT,0.00,WeatherDisplay:10.37,2013-07-18 05:16:00,
2013-07-18 01:21:00,69.6,69.3,29.59,South,180,0.0,0.0,99,0.00,CLR,SCT,0.00,WeatherDisplay:10.37,2013-07-18 05:21:00,
2013-07-18 01:26:00,69.4,69.1,29.58,South,180,0.0,0.0,99,0.00,CLR,SCT,0.00,WeatherDisplay:10.37,2013-07-18 05:26:00,
2013-07-18 01:31:00,69.4,69.1,29.58,South,180,0.0,0.0,99,0.00,CLR,SCT,0.00,WeatherDisplay:10.37,2013-07-18 05:31:00,
2013-07-18 01:36:00,69.4,69.1,29.59,South,180,0.0,0.0,99,0.00,CLR,SCT,0.00,WeatherDisplay:10.37,2013-07-18 05:36:00,
2013-07-18 01:41:00,69.4,69.1,29.59,South,180,1.2,0.0,99,0.00,CLR,SCT,0.00,WeatherDisplay:10.37,2013-07-18 05:41:00,
2013-07-18 01:46:00,69.3,69.0,29.58,South,180,1.2,0.0,99,0.00,CLR,SCT,0.00,WeatherDisplay:10.37,2013-07-18 05:46:00,
2013-07-18 01:51:00,69.3,69.0,29.59,South,180,1.2,0.0,99,0.00,CLR,SCT,0.00,WeatherDisplay:10.37,2013-07-18 05:51:00,
2013-07-18 01:56:00,69.3,69.0,29.58,South,180,1.2,0.0,99,0.00,CLR,SCT,0.00,WeatherDisplay:10.37,2013-07-18 05:56:00,
2013-07-18 02:01:00,69.3,69.0,29.58,South,180,1.2,0.0,99,0.00,CLR,SCT,0.00,WeatherDisplay:10.37,2013-07-18 06:01:00,
2013-07-18 02:06:00,69.4,69.1,29.58,South,180,0.0,0.0,99,0.00,CLR,SCT,0.00,WeatherDisplay:10.37,2013-07-18 06:06:00,
2013-07-18 02:11:00,69.4,69.1,29.58,NW,315,0.0,0.0,99,0.00,CLR,SCT,0.00,WeatherDisplay:10.37,2013-07-18 06:11:00,
2013-07-18 02:16:00,69.3,69.0,29.58,NW,315,0.0,0.0,99,0.00,CLR,SCT,0.00,WeatherDisplay:10.37,2013-07-18 06:16:00,
2013-07-18 02:21:00,69.1,68.8,29.58,NE,45,0.0,0.0,99,0.00,CLR,SCT,0.00,WeatherDisplay:10.37,2013-07-18 06:21:00,
2013-07-18 02:26:00,69.1,68.8,29.57,NW,315,0.0,0.0,99,0.00,CLR,SCT,0.00,WeatherDisplay:10.37,2013-07-18 06:26:00,
2013-07-18 02:32:00,69.1,68.8,29.57,NW,315,0.0,0.0,99,0.00,CLR,SCT,0.00,WeatherDisplay:10.37,2013-07-18 06:32:00,
2013-07-18 02:37:00,69.1,68.8,29.57,NW,315,0.0,0.0,99,0.00,CLR,SCT,0.00,WeatherDisplay:10.37,2013-07-18 06:37:00,
2013-07-18 02:42:00,69.1,68.8,29.57,South,180,0.0,0.0,99,0.00,CLR,SCT,0.00,WeatherDisplay:10.37,2013-07-18 06:42:00,
2013-07-18 02:47:00,68.9,68.6,29.57,South,180,0.0,0.0,99,0.00,CLR,SCT,0.00,WeatherDisplay:10.37,2013-07-18 06:47:00,
2013-07-18 02:52:00,68.9,68.6,29.57,South,180,0.0,0.0,99,0.00,CLR,SCT,0.00,WeatherDisplay:10.37,2013-07-18 06:52:00,
2013-07-18 02:57:00,68.9,68.6,29.57,South,180,0.0,0.0,99,0.00,CLR,SCT,0.00,WeatherDisplay:10.37,2013-07-18 06:57:00,
2013-07-18 03:02:00,68.9,68.6,29.57,South,180,0.0,0.0,99,0.00,CLR,SCT,0.00,WeatherDisplay:10.37,2013-07-18 07:02:00,
2013-07-18 03:07:00,68.7,68.4,29.56,South,180,0.0,0.0,99,0.00,CLR,SCT,0.00,WeatherDisplay:10.37,2013-07-18 07:07:00,
2013-07-18 03:12:00,68.7,68.4,29.56,NE,45,0.0,0.0,99,0.00,CLR,SCT,0.00,WeatherDisplay:10.37,2013-07-18 07:12:00,
2013-07-18 03:17:00,68.7,68.4,29.56,NE,45,0.0,0.0,99,0.00,CLR,SCT,0.00,WeatherDisplay:10.37,2013-07-18 07:17:00,
2013-07-18 03:22:00,68.7,68.4,29.56,NE,45,0.0,0.0,99,0.00,CLR,SCT,0.00,WeatherDisplay:10.37,2013-07-18 07:22:00,
2013-07-18 03:27:00,68.7,68.4,29.56,NE,45,0.0,0.0,99,0.00,CLR,SCT,0.00,WeatherDisplay:10.37,2013-07-18 07:27:00,
2013-07-18 03:32:00,68.7,68.4,29.56,NW,315,0.0,0.0,99,0.00,CLR,SCT,0.00,WeatherDisplay:10.37,2013-07-18 07:32:00,
2013-07-18 03:37:00,68.7,68.4,29.55,SW,225,1.2,0.0,99,0.00,CLR,SCT,0.00,WeatherDisplay:10.37,2013-07-18 07:37:00,
2013-07-18 03:42:00,68.7,68.4,29.56,SW,225,0.0,0.0,99,0.00,CLR,SCT,0.00,WeatherDisplay:10.37,2013-07-18 07:42:00,
2013-07-18 03:47:00,68.7,68.4,29.55,SW,225,0.0,0.0,99,0.00,CLR,SCT,0.00,WeatherDisplay:10.37,2013-07-18 07:47:00,
2013-07-18 03:52:00,68.7,68.4,29.56,SW,225,1.2,0.0,99,0.00,CLR,SCT,0.00,WeatherDisplay:10.37,2013-07-18 07:52:00,
2013-07-18 03:57:00,68.7,68.4,29.56,SW,225,1.2,0.0,99,0.00,CLR,SCT,0.00,WeatherDisplay:10.37,2013-07-18 07:57:00,
2013-07-18 04:02:00,68.7,68.4,29.56,NW,315,1.2,0.0,99,0.00,CLR,SCT,0.00,WeatherDisplay:10.37,2013-07-18 08:02:00,
2013-07-18 04:07:00,68.7,68.4,29.56,SE,135,1.2,0.0,99,0.00,CLR,SCT,0.00,WeatherDisplay:10.37,2013-07-18 08:07:00,
2013-07-18 04:12:00,68.7,68.4,29.56,SE,135,0.0,0.0,99,0.00,CLR,SCT,0.00,WeatherDisplay:10.37,2013-07-18 08:12:00,
2013-07-18 04:17:00,68.7,68.4,29.56,SE,135,0.0,0.0,99,0.00,CLR,SCT,0.00,WeatherDisplay:10.37,2013-07-18 08:17:00,
2013-07-18 04:22:00,68.7,68.4,29.57,SE,135,0.0,0.0,99,0.00,CLR,SCT,0.00,WeatherDisplay:10.37,2013-07-18 08:22:00,
2013-07-18 04:27:00,68.7,68.4,29.56,SW,225,0.0,0.0,99,0.00,CLR,SCT,0.00,WeatherDisplay:10.37,2013-07-18 08:27:00,
2013-07-18 04:32:00,68.7,68.4,29.56,SW,225,0.0,0.0,99,0.00,CLR,SCT,0.00,WeatherDisplay:10.37,2013-07-18 08:32:00,
2013-07-18 04:37:00,68.7,68.4,29.56,South,180,0.0,0.0,99,0.00,CLR,SCT,0.00,WeatherDisplay:10.37,2013-07-18 08:37:00,
2013-07-18 04:42:00,68.7,68.4,29.56,SW,225,0.0,0.0,99,0.00,CLR,SCT,0.00,WeatherDisplay:10.37,2013-07-18 08:42:00,
2013-07-18 04:47:00,68.7,68.4,29.56,SW,225,0.0,0.0,99,0.00,CLR,SCT,0.00,WeatherDisplay:10.37,2013-07-18 08:47:00,
2013-07-18 04:52:00,68.5,68.2,29.56,SW,225,0.0,0.0,99,0.00,CLR,SCT,0.00,WeatherDisplay:10.37,2013-07-18 08:52:00,
2013-07-18 04:57:00,68.5,68.2,29.56,SW,225,0.0,0.0,99,0.00,CLR,SCT,0.00,WeatherDisplay:10.37,2013-07-18 08:57:00,
2013-07-18 05:02:00,68.4,68.1,29.56,SW,225,0.0,0.0,99,0.00,CLR,SCT,0.00,WeatherDisplay:10.37,2013-07-18 09:02:00,
2013-07-18 05:07:00,68.4,68.1,29.55,SW,225,0.0,0.0,99,0.00,CLR,SCT,0.00,WeatherDisplay:10.37,2013-07-18 09:07:00,
2013-07-18 05:12:00,68.2,67.9,29.56,SW,225,0.0,0.0,99,0.00,CLR,SCT,0.00,WeatherDisplay:10.37,2013-07-18 09:12:00,
2013-07-18 05:17:00,68.2,67.9,29.56,SW,225,0.0,0.0,99,0.00,CLR,SCT,0.00,WeatherDisplay:10.37,2013-07-18 09:17:00,
2013-07-18 05:22:00,68.2,67.9,29.56,SW,225,0.0,0.0,99,0.00,CLR,SCT,0.00,WeatherDisplay:10.37,2013-07-18 09:22:00,
2013-07-18 05:27:00,68.2,67.9,29.56,SW,225,1.2,0.0,99,0.00,CLR,SCT,0.00,WeatherDisplay:10.37,2013-07-18 09:27:00,
2013-07-18 05:32:00,68.2,67.9,29.56,South,180,1.2,0.0,99,0.00,CLR,SCT,0.00,WeatherDisplay:10.37,2013-07-18 09:32:00,
2013-07-18 05:37:00,68.2,67.9,29.56,South,180,0.0,0.0,99,0.00,CLR,SCT,0.00,WeatherDisplay:10.37,2013-07-18 09:37:00,
2013-07-18 05:42:00,68.2,67.9,29.56,South,180,0.0,0.0,99,0.00,CLR,SCT,0.00,WeatherDisplay:10.37,2013-07-18 09:42:00,
2013-07-18 05:47:00,68.0,67.7,29.56,South,180,0.0,0.0,99,0.00,CLR,SCT,0.00,WeatherDisplay:10.37,2013-07-18 09:47:00,
2013-07-18 05:52:00,68.2,67.9,29.56,South,180,0.0,0.0,99,0.00,CLR,SCT,0.00,WeatherDisplay:10.37,2013-07-18 09:52:00,
2013-07-18 05:57:00,68.0,67.7,29.56,West,270,0.0,0.0,99,0.00,CLR,SCT,0.00,WeatherDisplay:10.37,2013-07-18 09:57:00,
2013-07-18 06:02:00,68.0,67.7,29.57,West,270,0.0,0.0,99,0.00,CLR,SCT,0.00,WeatherDisplay:10.37,2013-07-18 10:02:00,
2013-07-18 06:07:00,68.0,67.7,29.57,West,270,0.0,0.0,99,0.00,CLR,SCT,0.00,WeatherDisplay:10.37,2013-07-18 10:07:00,
2013-07-18 06:12:00,68.0,67.7,29.56,NW,315,0.0,0.0,99,0.00,CLR,SCT,0.00,WeatherDisplay:10.37,2013-07-18 10:12:00,
2013-07-18 06:17:00,68.0,67.7,29.56,NW,315,0.0,0.0,99,0.00,CLR,SCT,0.00,WeatherDisplay:10.37,2013-07-18 10:17:00,
2013-07-18 06:22:00,67.8,67.5,29.57,NW,315,0.0,0.0,99,0.00,CLR,SCT,0.00,WeatherDisplay:10.37,2013-07-18 10:22:00,
2013-07-18 06:27:00,68.0,67.7,29.57,NW,315,1.2,0.0,99,0.00,CLR,SCT,0.00,WeatherDisplay:10.37,2013-07-18 10:27:00,
2013-07-18 06:32:00,68.0,67.7,29.57,NW,315,1.2,0.0,99,0.00,CLR,SCT,0.00,WeatherDisplay:10.37,2013-07-18 10:32:00,
2013-07-18 06:37:00,68.0,67.7,29.57,SW,225,0.0,0.0,99,0.00,CLR,SCT,0.00,WeatherDisplay:10.37,2013-07-18 10:37:00,
2013-07-18 06:42:00,68.0,67.7,29.57,SW,225,0.0,0.0,99,0.00,CLR,SCT,0.00,WeatherDisplay:10.37,2013-07-18 10:42:00,
2013-07-18 06:47:00,68.0,67.7,29.57,SW,225,0.0,0.0,99,0.00,CLR,SCT,0.00,WeatherDisplay:10.37,2013-07-18 10:47:00,
2013-07-18 06:52:00,68.2,67.9,29.57,South,180,1.2,0.0,99,0.00,CLR,SCT,0.00,WeatherDisplay:10.37,2013-07-18 10:52:00,
2013-07-18 06:57:00,68.2,67.9,29.57,North,0,0.0,0.0,99,0.00,CLR,SCT,0.00,WeatherDisplay:10.37,2013-07-18 10:57:00,
2013-07-18 07:02:00,68.2,67.9,29.57,North,0,1.2,0.0,99,0.00,CLR,SCT,0.00,WeatherDisplay:10.37,2013-07-18 11:02:00,
2013-07-18 07:07:00,68.4,68.1,29.58,West,270,0.0,0.0,99,0.00,CLR,SCT,0.00,WeatherDisplay:10.37,2013-07-18 11:07:00,
2013-07-18 07:12:00,68.5,68.2,29.58,South,180,0.0,0.0,99,0.00,CLR,SCT,0.00,WeatherDisplay:10.37,2013-07-18 11:12:00,
2013-07-18 07:17:00,68.5,68.2,29.58,NW,315,1.2,0.0,99,0.00,CLR,SCT,0.00,WeatherDisplay:10.37,2013-07-18 11:17:00,
2013-07-18 07:22:00,68.7,68.4,29.58,NW,315,0.0,0.0,99,0.00,CLR,SCT,0.00,WeatherDisplay:10.37,2013-07-18 11:22:00,
2013-07-18 07:27:00,68.9,68.6,29.58,NW,315,0.0,0.0,99,0.00,CLR,SCT,0.00,WeatherDisplay:10.37,2013-07-18 11:27:00,
2013-07-18 07:32:00,68.9,68.6,29.58,North,0,0.0,0.0,99,0.00,CLR,SCT,0.00,WeatherDisplay:10.37,2013-07-18 11:32:00,
2013-07-18 07:37:00,69.1,68.8,29.58,NW,315,0.0,0.0,99,0.00,CLR,SCT,0.00,WeatherDisplay:10.37,2013-07-18 11:37:00,
2013-07-18 07:42:00,69.1,68.8,29.58,North,0,1.2,0.0,99,0.00,CLR,SCT,0.00,WeatherDisplay:10.37,2013-07-18 11:42:00,
2013-07-18 07:47:00,69.3,69.0,29.58,SW,225,1.2,0.0,99,0.00,CLR,SCT,0.00,WeatherDisplay:10.37,2013-07-18 11:47:00,
2013-07-18 07:53:00,69.6,69.3,29.58,South,180,1.2,0.0,99,0.00,CLR,SCT,0.00,WeatherDisplay:10.37,2013-07-18 11:53:00,
2013-07-18 07:58:00,69.8,69.2,29.58,South,180,1.2,0.0,98,0.00,CLR,SCT,0.00,WeatherDisplay:10.37,2013-07-18 11:58:00,
2013-07-18 08:03:00,70.0,69.4,29.58,SW,225,1.6,0.0,98,0.00,CLR,SCT,0.00,WeatherDisplay:10.37,2013-07-18 12:03:00,
2013-07-18 08:08:00,70.2,69.6,29.58,SW,225,0.0,0.0,98,0.00,CLR,SCT,0.00,WeatherDisplay:10.37,2013-07-18 12:08:00,
2013-07-18 08:13:00,70.5,69.9,29.58,NW,315,0.0,0.0,98,0.00,CLR,SCT,0.00,WeatherDisplay:10.37,2013-07-18 12:13:00,
2013-07-18 08:18:00,70.7,70.1,29.58,East,90,0.0,0.0,98,0.00,CLR,SCT,0.00,WeatherDisplay:10.37,2013-07-18 12:18:00,
2013-07-18 08:23:00,70.9,70.3,29.58,SE,135,1.2,0.0,98,0.00,CLR,SCT,0.00,WeatherDisplay:10.37,2013-07-18 12:23:00,
2013-07-18 08:28:00,71.1,70.5,29.59,SE,135,1.2,0.0,98,0.00,CLR,SCT,0.00,WeatherDisplay:10.37,2013-07-18 12:28:00,
2013-07-18 08:33:00,71.2,70.6,29.58,SE,135,0.0,0.0,98,0.00,CLR,SCT,0.00,WeatherDisplay:10.37,2013-07-18 12:33:00,
2013-07-18 08:38:00,71.6,70.7,29.59,South,180,1.2,0.0,97,0.00,CLR,SCT,0.00,WeatherDisplay:10.37,2013-07-18 12:38:00,
2013-07-18 08:43:00,72.1,71.2,29.59,SE,135,1.2,0.0,97,0.00,CLR,SCT,0.00,WeatherDisplay:10.37,2013-07-18 12:43:00,
2013-07-18 08:48:00,72.5,71.6,29.59,South,180,1.2,0.0,97,0.01,RA,SCT,0.01,WeatherDisplay:10.37,2013-07-18 12:48:00,
2013-07-18 08:53:00,73.0,72.1,29.59,SE,135,1.2,0.0,97,0.01,RA,SCT,0.01,WeatherDisplay:10.37,2013-07-18 12:53:00,
2013-07-18 08:58:00,73.6,72.7,29.59,SE,135,1.2,0.0,97,0.01,CLR,SCT,0.01,WeatherDisplay:10.37,2013-07-18 12:58:00,
2013-07-18 09:03:00,74.5,73.6,29.59,South,180,0.0,0.0,97,0.01,CLR,SCT,0.01,WeatherDisplay:10.37,2013-07-18 13:03:00,
2013-07-18 09:08:00,76.8,75.3,29.59,South,180,0.0,0.0,95,0.01,CLR,SCT,0.01,WeatherDisplay:10.37,2013-07-18 13:08:00,
2013-07-18 09:13:00,78.3,75.7,29.59,SE,135,0.0,0.0,92,0.01,CLR,SCT,0.01,WeatherDisplay:10.37,2013-07-18 13:13:00,
2013-07-18 09:18:00,79.2,74.3,29.58,SE,135,0.0,0.0,85,0.01,CLR,SCT,0.01,WeatherDisplay:10.37,2013-07-18 13:18:00,
2013-07-18 09:23:00,79.7,73.7,29.59,NE,45,0.0,0.0,82,0.01,CLR,SCT,0.01,WeatherDisplay:10.37,2013-07-18 13:23:00,
2013-07-18 09:28:00,80.8,74.4,29.58,SW,225,0.0,0.0,81,0.01,CLR,SCT,0.01,WeatherDisplay:10.37,2013-07-18 13:28:00,
2013-07-18 09:33:00,82.0,75.3,29.58,SW,225,1.2,0.0,80,0.01,CLR,SCT,0.01,WeatherDisplay:10.37,2013-07-18 13:33:00,
2013-07-18 09:38:00,83.5,75.5,29.58,North,0,0.0,0.0,77,0.01,CLR,SCT,0.01,WeatherDisplay:10.37,2013-07-18 13:38:00,
2013-07-18 09:43:00,84.7,75.5,29.58,South,180,0.0,0.0,74,0.01,CLR,SCT,0.01,WeatherDisplay:10.37,2013-07-18 13:43:00,
2013-07-18 09:48:00,84.7,74.3,29.58,North,0,0.0,0.0,71,0.00,CLR,SCT,0.01,WeatherDisplay:10.37,2013-07-18 13:48:00,
2013-07-18 09:53:00,84.4,73.9,29.58,South,180,0.0,0.0,71,0.00,CLR,SCT,0.01,WeatherDisplay:10.37,2013-07-18 13:53:00,
2013-07-18 09:58:00,84.6,73.7,29.58,NE,45,0.0,0.0,70,0.00,CLR,SCT,0.01,WeatherDisplay:10.37,2013-07-18 13:58:00,
2013-07-18 10:03:00,85.1,75.1,29.58,SW,225,0.0,0.0,72,0.00,CLR,SCT,0.01,WeatherDisplay:10.37,2013-07-18 14:03:00,
2013-07-18 10:08:00,86.5,75.2,29.57,NW,315,1.2,0.0,69,0.00,CLR,SCT,0.01,WeatherDisplay:10.37,2013-07-18 14:08:00,
2013-07-18 10:13:00,86.0,73.8,29.57,SE,135,0.0,0.0,67,0.00,CLR,SCT,0.01,WeatherDisplay:10.37,2013-07-18 14:13:00,
2013-07-18 10:18:00,86.4,74.5,29.57,NW,315,1.2,0.0,68,0.00,CLR,SCT,0.01,WeatherDisplay:10.37,2013-07-18 14:18:00,
2013-07-18 10:23:00,87.6,75.7,29.58,SE,135,1.2,0.0,68,0.00,CLR,SCT,0.01,WeatherDisplay:10.37,2013-07-18 14:23:00,
2013-07-18 10:28:00,88.5,75.7,29.58,SW,225,0.0,0.0,66,0.00,CLR,SCT,0.01,WeatherDisplay:10.37,2013-07-18 14:28:00,
2013-07-18 10:33:00,89.4,76.1,29.57,NW,315,0.0,0.0,65,0.00,CLR,SCT,0.01,WeatherDisplay:10.37,2013-07-18 14:33:00,
2013-07-18 10:39:00,89.6,75.3,29.58,South,180,1.2,0.0,63,0.00,CLR,SCT,0.01,WeatherDisplay:10.37,2013-07-18 14:39:00,
2013-07-18 10:44:00,90.5,76.2,29.58,South,180,0.0,0.0,63,0.00,CLR,SCT,0.01,WeatherDisplay:10.37,2013-07-18 14:44:00,
2013-07-18 10:49:00,90.9,76.0,29.58,NE,45,0.0,0.0,62,0.00,CLR,SCT,0.01,WeatherDisplay:10.37,2013-07-18 14:49:00,
2013-07-18 10:54:00,91.0,75.7,29.58,West,270,1.2,0.0,61,0.00,CLR,SCT,0.01,WeatherDisplay:10.37,2013-07-18 14:54:00,
2013-07-18 10:59:00,90.3,75.5,29.58,South,180,0.0,0.0,62,0.00,CLR,SCT,0.01,WeatherDisplay:10.37,2013-07-18 14:59:00,
2013-07-18 11:04:00,90.9,76.0,29.58,South,180,0.0,0.0,62,0.00,CLR,SCT,0.01,WeatherDisplay:10.37,2013-07-18 15:04:00,
2013-07-18 11:09:00,91.2,75.9,29.58,East,90,0.0,0.0,61,0.00,CLR,SCT,0.01,WeatherDisplay:10.37,2013-07-18 15:09:00,
2013-07-18 11:14:00,91.4,75.6,29.58,SW,225,0.0,0.0,60,0.00,CLR,SCT,0.01,WeatherDisplay:10.37,2013-07-18 15:14:00,
2013-07-18 11:19:00,91.4,74.0,29.58,South,180,0.0,0.0,57,0.00,CLR,SCT,0.01,WeatherDisplay:10.37,2013-07-18 15:19:00,
2013-07-18 11:24:00,91.0,73.7,29.58,East,90,0.0,0.0,57,0.00,CLR,SCT,0.01,WeatherDisplay:10.37,2013-07-18 15:24:00,
2013-07-18 11:29:00,90.9,72.5,29.57,SE,135,0.0,0.0,55,0.00,CLR,SCT,0.01,WeatherDisplay:10.37,2013-07-18 15:29:00,
2013-07-18 11:34:00,91.2,74.9,29.58,SE,135,1.2,0.0,59,0.00,CLR,SCT,0.01,WeatherDisplay:10.37,2013-07-18 15:34:00,
2013-07-18 11:39:00,91.4,73.0,29.57,SE,135,0.0,0.0,55,0.00,CLR,SCT,0.01,WeatherDisplay:10.37,2013-07-18 15:39:00,
2013-07-18 11:44:00,90.7,73.9,29.58,South,180,0.0,0.0,58,0.00,CLR,SCT,0.01,WeatherDisplay:10.37,2013-07-18 15:44:00,
2013-07-18 11:49:00,91.0,74.7,29.58,South,180,0.0,0.0,59,0.00,CLR,SCT,0.01,WeatherDisplay:10.37,2013-07-18 15:49:00,
2013-07-18 11:54:00,91.4,73.5,29.58,North,0,0.0,0.0,56,0.00,CLR,SCT,0.01,WeatherDisplay:10.37,2013-07-18 15:54:00,
2013-07-18 11:59:00,91.8,73.8,29.58,South,180,0.0,0.0,56,0.00,CLR,SCT,0.01,WeatherDisplay:10.37,2013-07-18 15:59:00,
2013-07-18 12:04:00,91.0,74.2,29.57,South,180,1.2,0.0,58,0.00,CLR,SCT,0.01,WeatherDisplay:10.37,2013-07-18 16:04:00,
2013-07-18 12:09:00,91.4,75.1,29.58,SW,225,0.0,0.0,59,0.00,CLR,SCT,0.01,WeatherDisplay:10.37,2013-07-18 16:09:00,
2013-07-18 12:14:00,90.9,72.5,29.58,North,0,1.2,0.0,55,0.00,CLR,SCT,0.01,WeatherDisplay:10.37,2013-07-18 16:14:00,
2013-07-18 12:19:00,90.9,73.0,29.58,SW,225,1.2,0.0,56,0.00,CLR,SCT,0.01,WeatherDisplay:10.37,2013-07-18 16:19:00,
2013-07-18 12:24:00,91.6,74.2,29.58,SW,225,1.2,0.0,57,0.00,CLR,SCT,0.01,WeatherDisplay:10.37,2013-07-18 16:24:00,
2013-07-18 12:29:00,91.6,73.1,29.57,SE,135,0.0,0.0,55,0.00,CLR,SCT,0.01,WeatherDisplay:10.37,2013-07-18 16:29:00,
2013-07-18 12:34:00,91.2,72.2,29.57,ESE,112,1.2,0.0,54,0.00,CLR,SCT,0.01,WeatherDisplay:10.37,2013-07-18 16:34:00,
2013-07-18 12:39:00,91.4,74.0,29.57,NW,315,1.2,0.0,57,0.00,CLR,SCT,0.01,WeatherDisplay:10.37,2013-07-18 16:39:00,
2013-07-18 12:44:00,92.1,75.2,29.57,NW,315,0.0,0.0,58,0.00,CLR,SCT,0.01,WeatherDisplay:10.37,2013-07-18 16:44:00,
2013-07-18 12:49:00,92.1,74.7,29.57,SE,135,1.2,0.0,57,0.00,CLR,SCT,0.01,WeatherDisplay:10.37,2013-07-18 16:49:00,
2013-07-18 12:54:00,91.8,73.8,29.57,South,180,0.0,0.0,56,0.00,CLR,SCT,0.01,WeatherDisplay:10.37,2013-07-18 16:54:00,
2013-07-18 12:59:00,91.9,74.0,29.57,South,180,1.2,0.0,56,0.00,CLR,SCT,0.01,WeatherDisplay:10.37,2013-07-18 16:59:00,
2013-07-18 13:04:00,92.1,72.0,29.57,SE,135,1.2,0.0,52,0.00,CLR,SCT,0.01,WeatherDisplay:10.37,2013-07-18 17:04:00,
2013-07-18 13:09:00,92.3,73.8,29.57,South,180,0.0,0.0,55,0.00,CLR,SCT,0.01,WeatherDisplay:10.37,2013-07-18 17:09:00,
2013-07-18 13:14:00,92.7,73.0,29.56,NW,315,1.2,0.0,53,0.00,CLR,SCT,0.01,WeatherDisplay:10.37,2013-07-18 17:14:00,
2013-07-18 13:19:00,93.0,72.8,29.56,SW,225,1.2,0.0,52,0.00,CLR,SCT,0.01,WeatherDisplay:10.37,2013-07-18 17:19:00,
2013-07-18 13:24:00,93.6,73.9,29.56,SW,225,0.0,0.0,53,0.00,CLR,SCT,0.01,WeatherDisplay:10.37,2013-07-18 17:24:00,
2013-07-18 13:29:00,93.9,73.0,29.56,South,180,0.0,0.0,51,0.00,CLR,SCT,0.01,WeatherDisplay:10.37,2013-07-18 17:29:00,
2013-07-18 13:34:00,94.5,74.7,29.56,East,90,0.0,0.0,53,0.00,CLR,SCT,0.01,WeatherDisplay:10.37,2013-07-18 17:34:00,
2013-07-18 13:39:00,93.4,71.4,29.56,SE,135,0.0,0.0,49,0.00,CLR,SCT,0.01,WeatherDisplay:10.37,2013-07-18 17:39:00,
2013-07-18 13:44:00,93.6,73.3,29.55,SE,135,0.0,0.0,52,0.00,CLR,SCT,0.01,WeatherDisplay:10.37,2013-07-18 17:44:00,
2013-07-18 13:49:00,93.7,72.3,29.55,SW,225,1.2,0.0,50,0.00,CLR,SCT,0.01,WeatherDisplay:10.37,2013-07-18 17:49:00,
2013-07-18 13:54:00,94.5,74.7,29.55,SE,135,0.0,0.0,53,0.00,CLR,SCT,0.01,WeatherDisplay:10.37,2013-07-18 17:54:00,
2013-07-18 13:59:00,93.9,72.5,29.55,SW,225,1.2,0.0,50,0.00,CLR,SCT,0.01,WeatherDisplay:10.37,2013-07-18 17:59:00,
2013-07-18 14:04:00,92.7,71.9,29.55,NW,315,1.2,0.0,51,0.00,CLR,SCT,0.01,WeatherDisplay:10.37,2013-07-18 18:04:00,
2013-07-18 14:09:00,90.9,71.9,29.55,North,0,1.2,0.0,54,0.00,CLR,SCT,0.01,WeatherDisplay:10.37,2013-07-18 18:09:00,
2013-07-18 14:14:00,90.7,71.7,29.54,South,180,1.2,0.0,54,0.00,CLR,SCT,0.01,WeatherDisplay:10.37,2013-07-18 18:14:00,
2013-07-18 14:19:00,91.0,72.6,29.54,NW,315,0.0,0.0,55,0.00,CLR,SCT,0.01,WeatherDisplay:10.37,2013-07-18 18:19:00,
2013-07-18 14:24:00,90.5,72.7,29.54,North,0,1.2,0.0,56,0.00,CLR,SCT,0.01,WeatherDisplay:10.37,2013-07-18 18:24:00,
2013-07-18 14:29:00,90.1,72.3,29.54,NW,315,1.2,0.0,56,0.00,CLR,SCT,0.01,WeatherDisplay:10.37,2013-07-18 18:29:00,
2013-07-18 14:34:00,90.7,73.4,29.53,NW,315,1.2,0.0,57,0.00,CLR,SCT,0.01,WeatherDisplay:10.37,2013-07-18 18:34:00,
2013-07-18 14:39:00,91.9,73.5,29.53,NW,315,0.0,0.0,55,0.00,CLR,SCT,0.01,WeatherDisplay:10.37,2013-07-18 18:39:00,
2013-07-18 14:44:00,92.7,73.6,29.53,South,180,1.2,0.0,54,0.00,CLR,SCT,0.01,WeatherDisplay:10.37,2013-07-18 18:44:00,
2013-07-18 14:49:00,92.7,73.0,29.53,South,180,0.0,0.0,53,0.00,CLR,SCT,0.01,WeatherDisplay:10.37,2013-07-18 18:49:00,
2013-07-18 14:54:00,93.0,73.4,29.53,NW,315,1.2,0.0,53,0.00,CLR,SCT,0.01,WeatherDisplay:10.37,2013-07-18 18:54:00,
2013-07-18 14:59:00,93.2,72.4,29.52,North,0,1.2,0.0,51,0.00,CLR,SCT,0.01,WeatherDisplay:10.37,2013-07-18 18:59:00,
2013-07-18 15:04:00,94.1,73.8,29.52,South,180,1.2,0.0,52,0.00,CLR,SCT,0.01,WeatherDisplay:10.37,2013-07-18 19:04:00,
2013-07-18 15:09:00,95.2,73.6,29.52,East,90,0.0,0.0,50,0.00,CLR,SCT,0.01,WeatherDisplay:10.37,2013-07-18 19:09:00,
2013-07-18 15:14:00,94.6,71.3,29.52,SE,135,0.0,0.0,47,0.00,CLR,SCT,0.01,WeatherDisplay:10.37,2013-07-18 19:14:00,
2013-07-18 15:19:00,92.3,71.6,29.51,SE,135,1.2,0.0,51,0.00,CLR,SCT,0.01,WeatherDisplay:10.37,2013-07-18 19:19:00,
2013-07-18 15:24:00,92.1,72.5,29.51,SE,135,1.2,0.0,53,0.00,CLR,SCT,0.01,WeatherDisplay:10.37,2013-07-18 19:24:00,
2013-07-18 15:29:00,93.2,72.4,29.51,South,180,1.2,0.0,51,0.00,CLR,SCT,0.01,WeatherDisplay:10.37,2013-07-18 19:29:00,
2013-07-18 15:34:00,93.2,71.8,29.50,SE,135,1.2,0.0,50,0.00,CLR,SCT,0.01,WeatherDisplay:10.37,2013-07-18 19:34:00,
2013-07-18 15:39:00,91.9,71.8,29.50,SE,135,1.2,0.0,52,0.00,CLR,SCT,0.01,WeatherDisplay:10.37,2013-07-18 19:39:00,
2013-07-18 15:44:00,90.3,71.4,29.50,SE,135,1.2,0.0,54,0.00,CLR,SCT,0.01,WeatherDisplay:10.37,2013-07-18 19:44:00,
2013-07-18 15:49:00,89.2,71.0,29.50,South,180,1.2,0.0,55,0.00,CLR,SCT,0.01,WeatherDisplay:10.37,2013-07-18 19:49:00,
2013-07-18 15:54:00,88.7,70.5,29.50,East,90,1.2,0.0,55,0.00,CLR,SCT,0.01,WeatherDisplay:10.37,2013-07-18 19:54:00,
2013-07-18 15:59:00,88.5,71.3,29.50,East,90,0.0,0.0,57,0.00,CLR,SCT,0.01,WeatherDisplay:10.37,2013-07-18 19:59:00,
2013-07-18 16:04:00,88.5,71.9,29.50,East,90,0.0,0.0,58,0.00,CLR,SCT,0.01,WeatherDisplay:10.37,2013-07-18 20:04:00,
2013-07-18 16:09:00,88.5,73.8,29.50,North,0,0.0,0.0,62,0.00,CLR,SCT,0.01,WeatherDisplay:10.37,2013-07-18 20:09:00,
2013-07-18 16:14:00,88.3,73.2,29.50,NW,315,1.2,0.0,61,0.00,CLR,SCT,0.01,WeatherDisplay:10.37,2013-07-18 20:14:00,
2013-07-18 16:19:00,88.0,73.8,29.50,SW,225,1.2,0.0,63,0.00,CLR,SCT,0.01,WeatherDisplay:10.37,2013-07-18 20:19:00,
2013-07-18 16:24:00,88.0,74.3,29.50,SW,225,1.2,0.0,64,0.00,CLR,SCT,0.01,WeatherDisplay:10.37,2013-07-18 20:24:00,
2013-07-18 16:30:00,88.0,75.2,29.50,West,270,1.2,0.0,66,0.00,CLR,SCT,0.01,WeatherDisplay:10.37,2013-07-18 20:30:00,
2013-07-18 16:35:00,88.2,75.8,29.49,NE,45,1.2,0.0,67,0.00,CLR,SCT,0.01,WeatherDisplay:10.37,2013-07-18 20:35:00,
2013-07-18 16:40:00,88.0,74.7,29.49,SE,135,1.2,0.0,65,0.00,CLR,SCT,0.01,WeatherDisplay:10.37,2013-07-18 20:40:00,
2013-07-18 16:45:00,89.1,76.2,29.48,SW,225,1.2,0.0,66,0.00,CLR,SCT,0.01,WeatherDisplay:10.37,2013-07-18 20:45:00,
2013-07-18 16:50:00,91.4,76.1,29.49,SE,135,1.2,0.0,61,0.00,CLR,SCT,0.01,WeatherDisplay:10.37,2013-07-18 20:50:00,
2013-07-18 16:55:00,92.7,75.2,29.48,NE,45,1.2,0.0,57,0.00,CLR,SCT,0.01,WeatherDisplay:10.37,2013-07-18 20:55:00,
2013-07-18 17:00:00,92.3,75.9,29.48,North,0,0.0,0.0,59,0.00,CLR,SCT,0.01,WeatherDisplay:10.37,2013-07-18 21:00:00,
2013-07-18 17:05:00,92.8,74.8,29.48,SE,135,1.2,0.0,56,0.00,CLR,SCT,0.01,WeatherDisplay:10.37,2013-07-18 21:05:00,
2013-07-18 17:10:00,93.9,74.7,29.48,North,0,1.2,0.0,54,0.00,CLR,SCT,0.01,WeatherDisplay:10.37,2013-07-18 21:10:00,
2013-07-18 17:15:00,94.5,75.2,29.48,SE,135,1.2,0.0,54,0.00,CLR,SCT,0.01,WeatherDisplay:10.37,2013-07-18 21:15:00,
2013-07-18 17:20:00,93.7,74.6,29.48,West,270,1.2,0.0,54,0.00,CLR,SCT,0.01,WeatherDisplay:10.37,2013-07-18 21:20:00,
2013-07-18 17:25:00,91.4,73.5,29.49,SW,225,1.2,0.0,56,0.00,CLR,SCT,0.01,WeatherDisplay:10.37,2013-07-18 21:25:00,
2013-07-18 17:30:00,90.0,74.7,29.48,NW,315,1.2,0.0,61,0.00,CLR,SCT,0.01,WeatherDisplay:10.37,2013-07-18 21:30:00,
2013-07-18 17:35:00,88.5,74.3,29.48,NW,315,1.2,0.0,63,0.00,CLR,SCT,0.01,WeatherDisplay:10.37,2013-07-18 21:35:00,
2013-07-18 17:40:00,87.8,74.1,29.48,West,270,1.2,0.0,64,0.00,CLR,SCT,0.01,WeatherDisplay:10.37,2013-07-18 21:40:00,
2013-07-18 17:45:00,87.8,74.6,29.48,South,180,1.2,0.0,65,0.00,CLR,SCT,0.01,WeatherDisplay:10.37,2013-07-18 21:45:00,
2013-07-18 17:50:00,89.8,75.0,29.47,NW,315,1.2,0.0,62,0.00,CLR,SCT,0.01,WeatherDisplay:10.37,2013-07-18 21:50:00,
2013-07-18 17:55:00,91.8,74.9,29.47,South,180,1.2,0.0,58,0.00,CLR,SCT,0.01,WeatherDisplay:10.37,2013-07-18 21:55:00,
2013-07-18 18:00:00,93.2,74.1,29.47,South,180,1.2,0.0,54,0.00,CLR,SCT,0.01,WeatherDisplay:10.37,2013-07-18 22:00:00,
2013-07-18 18:05:00,93.9,74.7,29.47,SE,135,1.2,0.0,54,0.00,CLR,SCT,0.01,WeatherDisplay:10.37,2013-07-18 22:05:00,
2013-07-18 18:10:00,94.6,74.9,29.47,NE,45,0.0,0.0,53,0.00,CLR,SCT,0.01,WeatherDisplay:10.37,2013-07-18 22:10:00,
2013-07-18 18:15:00,95.0,74.0,29.47,SE,135,0.0,0.0,51,0.00,CLR,SCT,0.01,WeatherDisplay:10.37,2013-07-18 22:15:00,
2013-07-18 18:20:00,94.1,73.8,29.48,South,180,1.2,0.0,52,0.00,CLR,SCT,0.01,WeatherDisplay:10.37,2013-07-18 22:20:00,
2013-07-18 18:25:00,93.6,73.9,29.47,SW,225,1.2,0.0,53,0.00,CLR,SCT,0.01,WeatherDisplay:10.37,2013-07-18 22:25:00,
2013-07-18 18:30:00,92.3,74.3,29.47,South,180,1.2,0.0,56,0.00,CLR,SCT,0.01,WeatherDisplay:10.37,2013-07-18 22:30:00,
2013-07-18 18:35:00,91.9,74.0,29.47,North,0,1.2,0.0,56,0.00,CLR,SCT,0.01,WeatherDisplay:10.37,2013-07-18 22:35:00,
2013-07-18 18:40:00,91.0,73.7,29.47,SW,225,1.2,0.0,57,0.00,CLR,SCT,0.01,WeatherDisplay:10.37,2013-07-18 22:40:00,
2013-07-18 18:45:00,90.7,73.9,29.47,SE,135,1.2,0.0,58,0.00,CLR,SCT,0.01,WeatherDisplay:10.37,2013-07-18 22:45:00,
2013-07-18 18:50:00,89.8,73.5,29.48,South,180,1.2,0.0,59,0.00,CLR,SCT,0.01,WeatherDisplay:10.37,2013-07-18 22:50:00,
2013-07-18 18:55:00,89.1,74.3,29.47,West,270,1.2,0.0,62,0.00,CLR,SCT,0.01,WeatherDisplay:10.37,2013-07-18 22:55:00,
2013-07-18 19:00:00,88.7,74.5,29.47,North,0,1.2,0.0,63,0.00,CLR,SCT,0.01,WeatherDisplay:10.37,2013-07-18 23:00:00,
2013-07-18 19:05:00,88.2,74.4,29.48,SE,135,1.2,0.0,64,0.00,CLR,SCT,0.01,WeatherDisplay:10.37,2013-07-18 23:05:00,
2013-07-18 19:10:00,87.1,75.2,29.48,SE,135,0.0,0.0,68,0.00,CLR,SCT,0.01,WeatherDisplay:10.37,2013-07-18 23:10:00,
2013-07-18 19:15:00,85.3,74.8,29.48,West,270,1.2,0.0,71,0.00,CLR,SCT,0.01,WeatherDisplay:10.37,2013-07-18 23:15:00,
2013-07-18 19:20:00,84.0,74.4,29.48,SE,135,1.2,0.0,73,0.00,CLR,SCT,0.01,WeatherDisplay:10.37,2013-07-18 23:20:00,
2013-07-18 19:25:00,83.1,74.4,29.48,SW,225,1.2,0.0,75,0.00,CLR,SCT,0.01,WeatherDisplay:10.37,2013-07-18 23:25:00,
2013-07-18 19:30:00,82.6,74.2,29.48,SE,135,1.2,0.0,76,0.00,CLR,SCT,0.01,WeatherDisplay:10.37,2013-07-18 23:30:00,
2013-07-18 19:35:00,82.2,74.3,29.48,SE,135,1.2,0.0,77,0.00,CLR,SCT,0.01,WeatherDisplay:10.37,2013-07-18 23:35:00,
2013-07-18 19:40:00,81.9,74.3,29.49,East,90,1.2,0.0,78,0.00,CLR,SCT,0.01,WeatherDisplay:10.37,2013-07-18 23:40:00,
2013-07-18 19:45:00,81.5,74.0,29.49,West,270,1.2,0.0,78,0.00,CLR,SCT,0.01,WeatherDisplay:10.37,2013-07-18 23:45:00,
2013-07-18 19:50:00,81.5,74.4,29.49,West,270,1.2,0.0,79,0.00,CLR,SCT,0.01,WeatherDisplay:10.37,2013-07-18 23:50:00,
2013-07-18 19:55:00,81.3,74.2,29.49,North,0,1.2,0.0,79,0.00,CLR,SCT,0.01,WeatherDisplay:10.37,2013-07-18 23:55:00,
2013-07-18 20:00:00,81.1,74.0,29.49,North,0,1.2,0.0,79,0.00,CLR,SCT,0.01,WeatherDisplay:10.37,2013-07-19 00:00:00,
2013-07-18 20:05:00,81.0,74.2,29.49,North,0,0.0,0.0,80,0.00,CLR,SCT,0.01,WeatherDisplay:10.37,2013-07-19 00:05:00,
2013-07-18 20:10:00,80.8,74.0,29.49,NE,45,1.2,0.0,80,0.00,CLR,SCT,0.01,WeatherDisplay:10.37,2013-07-19 00:10:00,
2013-07-18 20:15:00,80.8,74.0,29.49,NE,45,0.0,0.0,80,0.00,CLR,SCT,0.01,WeatherDisplay:10.37,2013-07-19 00:15:00,
2013-07-18 20:20:00,80.4,74.1,29.49,NE,45,0.0,0.0,81,0.00,CLR,SCT,0.01,WeatherDisplay:10.37,2013-07-19 00:20:00,
2013-07-18 20:25:00,80.2,74.2,29.49,NE,45,1.2,0.0,82,0.00,CLR,SCT,0.01,WeatherDisplay:10.37,2013-07-19 00:25:00,
2013-07-18 20:30:00,79.9,73.9,29.49,NE,45,1.2,0.0,82,0.00,CLR,SCT,0.01,WeatherDisplay:10.37,2013-07-19 00:30:00,
2013-07-18 20:35:00,79.7,73.7,29.49,NE,45,1.6,0.0,82,0.00,CLR,SCT,0.01,WeatherDisplay:10.37,2013-07-19 00:35:00,
2013-07-18 20:40:00,79.5,73.9,29.49,NE,45,0.0,0.0,83,0.00,CLR,SCT,0.01,WeatherDisplay:10.37,2013-07-19 00:40:00,
2013-07-18 20:45:00,79.3,73.7,29.49,NE,45,0.0,0.0,83,0.00,CLR,SCT,0.01,WeatherDisplay:10.37,2013-07-19 00:45:00,
2013-07-18 20:50:00,79.0,73.7,29.49,NW,315,1.2,0.0,84,0.00,CLR,SCT,0.01,WeatherDisplay:10.37,2013-07-19 00:50:00,
2013-07-18 20:55:00,78.8,73.6,29.50,NW,315,1.2,0.0,84,0.00,CLR,SCT,0.01,WeatherDisplay:10.37,2013-07-19 00:55:00,
2013-07-18 21:00:00,78.4,73.9,29.50,SW,225,0.0,0.0,86,0.00,CLR,SCT,0.01,WeatherDisplay:10.37,2013-07-19 01:00:00,
2013-07-18 21:05:00,78.4,73.9,29.50,SW,225,0.0,0.0,86,0.00,CLR,SCT,0.01,WeatherDisplay:10.37,2013-07-19 01:05:00,
2013-07-18 21:10:00,78.3,73.7,29.49,North,0,0.0,0.0,86,0.00,CLR,SCT,0.01,WeatherDisplay:10.37,2013-07-19 01:10:00,
2013-07-18 21:15:00,78.3,74.1,29.50,North,0,0.0,0.0,87,0.00,CLR,SCT,0.01,WeatherDisplay:10.37,2013-07-19 01:15:00,
2013-07-18 21:20:00,78.1,73.9,29.50,South,180,1.2,0.0,87,0.00,CLR,SCT,0.01,WeatherDisplay:10.37,2013-07-19 01:20:00,
2013-07-18 21:25:00,78.1,73.9,29.50,South,180,0.0,0.0,87,0.00,CLR,SCT,0.01,WeatherDisplay:10.37,2013-07-19 01:25:00,
2013-07-18 21:30:00,77.7,73.9,29.50,SE,135,1.2,0.0,88,0.00,CLR,SCT,0.01,WeatherDisplay:10.37,2013-07-19 01:30:00,
2013-07-18 21:35:00,77.5,73.7,29.50,SE,135,0.0,0.0,88,0.00,CLR,SCT,0.01,WeatherDisplay:10.37,2013-07-19 01:35:00,
2013-07-18 21:40:00,77.4,73.9,29.51,North,0,0.0,0.0,89,0.00,CLR,SCT,0.01,WeatherDisplay:10.37,2013-07-19 01:40:00,
2013-07-18 21:45:00,77.4,73.9,29.51,South,180,0.0,0.0,89,0.00,CLR,SCT,0.01,WeatherDisplay:10.37,2013-07-19 01:45:00,
2013-07-18 21:50:00,77.2,74.0,29.51,SW,225,1.2,0.0,90,0.00,CLR,SCT,0.01,WeatherDisplay:10.37,2013-07-19 01:50:00,
2013-07-18 21:55:00,77.2,74.0,29.51,South,180,1.2,0.0,90,0.00,CLR,SCT,0.01,WeatherDisplay:10.37,2013-07-19 01:55:00,
2013-07-18 22:00:00,77.0,73.8,29.52,South,180,1.2,0.0,90,0.00,CLR,SCT,0.01,WeatherDisplay:10.37,2013-07-19 02:00:00,
2013-07-18 22:05:00,76.8,74.0,29.52,South,180,1.2,0.0,91,0.00,CLR,SCT,0.01,WeatherDisplay:10.37,2013-07-19 02:05:00,
2013-07-18 22:10:00,76.6,74.1,29.51,South,180,1.2,0.0,92,0.00,CLR,SCT,0.01,WeatherDisplay:10.37,2013-07-19 02:10:00,
2013-07-18 22:16:00,76.5,74.0,29.52,South,180,0.0,0.0,92,0.00,CLR,SCT,0.01,WeatherDisplay:10.37,2013-07-19 02:16:00,
2013-07-18 22:21:00,76.5,74.0,29.52,South,180,0.0,0.0,92,0.00,CLR,SCT,0.01,WeatherDisplay:10.37,2013-07-19 02:21:00,
2013-07-18 22:26:00,76.6,74.1,29.52,South,180,0.0,0.0,92,0.00,CLR,SCT,0.01,WeatherDisplay:10.37,2013-07-19 02:26:00,
2013-07-18 22:31:00,76.5,74.3,29.51,South,180,1.2,0.0,93,0.00,CLR,SCT,0.01,WeatherDisplay:10.37,2013-07-19 02:31:00,
2013-07-18 22:36:00,76.1,73.9,29.52,South,180,1.2,0.0,93,0.00,CLR,SCT,0.01,WeatherDisplay:10.37,2013-07-19 02:36:00,
2013-07-18 22:41:00,76.1,73.9,29.53,South,180,0.0,0.0,93,0.00,CLR,SCT,0.01,WeatherDisplay:10.37,2013-07-19 02:41:00,
2013-07-18 22:46:00,75.9,73.7,29.52,West,270,0.0,0.0,93,0.00,CLR,SCT,0.01,WeatherDisplay:10.37,2013-07-19 02:46:00,
2013-07-18 22:51:00,76.1,74.2,29.53,South,180,1.2,0.0,94,0.00,CLR,SCT,0.01,WeatherDisplay:10.37,2013-07-19 02:51:00,
2013-07-18 22:56:00,75.9,74.1,29.53,South,180,1.2,0.0,94,0.00,CLR,SCT,0.01,WeatherDisplay:10.37,2013-07-19 02:56:00,
2013-07-18 23:01:00,75.7,73.9,29.53,South,180,0.0,0.0,94,0.00,CLR,SCT,0.01,WeatherDisplay:10.37,2013-07-19 03:01:00,
2013-07-18 23:06:00,75.7,73.9,29.53,South,180,1.2,0.0,94,0.00,CLR,SCT,0.01,WeatherDisplay:10.37,2013-07-19 03:06:00,
2013-07-18 23:11:00,75.6,73.7,29.52,South,180,0.0,0.0,94,0.00,CLR,SCT,0.01,WeatherDisplay:10.37,2013-07-19 03:11:00,
2013-07-18 23:16:00,75.6,73.7,29.52,South,180,0.0,0.0,94,0.00,CLR,SCT,0.01,WeatherDisplay:10.37,2013-07-19 03:16:00,
2013-07-18 23:21:00,75.4,73.5,29.53,NW,315,1.2,0.0,94,0.00,CLR,SCT,0.01,WeatherDisplay:10.37,2013-07-19 03:21:00,
2013-07-18 23:26:00,75.4,73.5,29.53,NW,315,0.0,0.0,94,0.00,CLR,SCT,0.01,WeatherDisplay:10.37,2013-07-19 03:26:00,
2013-07-18 23:31:00,75.2,73.4,29.52,SE,135,1.2,0.0,94,0.00,CLR,SCT,0.01,WeatherDisplay:10.37,2013-07-19 03:31:00,
2013-07-18 23:36:00,75.2,73.4,29.53,SE,135,1.2,0.0,94,0.00,CLR,SCT,0.01,WeatherDisplay:10.37,2013-07-19 03:36:00,
2013-07-18 23:41:00,75.2,73.7,29.53,SE,135,1.2,0.0,95,0.00,CLR,SCT,0.01,WeatherDisplay:10.37,2013-07-19 03:41:00,
2013-07-18 23:46:00,75.0,73.8,29.53,SE,135,1.2,0.0,96,0.00,CLR,SCT,0.01,WeatherDisplay:10.37,2013-07-19 03:46:00,
2013-07-18 23:51:00,74.8,73.6,29.53,South,180,0.0,0.0,96,0.00,CLR,SCT,0.01,WeatherDisplay:10.37,2013-07-19 03:51:00,
2013-07-18 23:56:00,74.7,73.4,29.53,South,180,0.0,0.0,96,0.00,CLR,SCT,0.01,WeatherDisplay:10.37,2013-07-19 03:56:00,